createdAt,value
2023-02-11T00:02:35.130Z,28.25
2023-02-11T00:08:37.048Z,27.70
2023-02-11T00:14:38.540Z,24.92
2023-02-11T00:20:40.077Z,27.77
2023-02-11T00:26:41.522Z,31.73
2023-02-11T00:32:43.624Z,24.50
2023-02-11T00:38:45.549Z,26.77
2023-02-11T00:44:47.079Z,24.65
2023-02-11T00:50:51.696Z,27.30
2023-02-11T00:56:53.304Z,26.92
2023-02-11T01:02:55.116Z,28.58
2023-02-11T01:08:57.685Z,24.77
2023-02-11T01:14:59.211Z,28.60
2023-02-11T01:21:00.753Z,30.47
2023-02-11T01:27:02.294Z,27.48
2023-02-11T01:33:03.784Z,26.27
2023-02-11T01:39:05.318Z,24.90
2023-02-11T01:45:25.729Z,26.35
2023-02-11T01:51:29.398Z,27.57
2023-02-11T01:57:32.226Z,24.52
2023-02-11T02:03:36.575Z,26.60
2023-02-11T02:09:40.385Z,26.80
2023-02-11T02:15:47.246Z,29.67
2023-02-11T02:22:07.250Z,26.23
2023-02-11T02:28:24.532Z,28.45
2023-02-11T02:34:44.764Z,28.55
2023-02-11T02:40:52.347Z,26.80
2023-02-11T02:46:53.957Z,30.52
2023-02-11T02:52:55.505Z,23.87
2023-02-11T02:59:03.895Z,27.75
2023-02-11T03:05:05.486Z,28.00
2023-02-11T03:11:07.755Z,24.93
2023-02-11T03:17:10.173Z,27.88
2023-02-11T03:23:15.839Z,27.43
2023-02-11T03:29:29.031Z,28.45
2023-02-11T03:35:43.171Z,32.85
2023-02-11T03:41:45.498Z,27.50
2023-02-11T03:47:49.283Z,28.48
2023-02-11T03:53:52.163Z,28.73
2023-02-11T03:59:55.558Z,28.75
2023-02-11T04:05:57.142Z,28.88
2023-02-11T04:11:58.662Z,28.97
2023-02-11T04:18:00.164Z,26.67
2023-02-11T04:24:01.636Z,30.30
2023-02-11T04:30:07.313Z,29.20
2023-02-11T04:36:08.890Z,31.45
2023-02-11T04:42:10.396Z,33.13
2023-02-11T04:48:11.857Z,29.02
2023-02-11T04:54:13.483Z,31.37
2023-02-11T05:00:15.495Z,28.50
2023-02-11T05:06:17.148Z,28.42
2023-02-11T05:12:18.661Z,29.43
2023-02-11T05:18:20.171Z,28.35
2023-02-11T05:24:21.645Z,35.93
2023-02-11T05:30:23.168Z,28.08
2023-02-11T05:36:24.681Z,30.15
2023-02-11T05:42:26.628Z,28.10
2023-02-11T05:48:28.068Z,32.42
2023-02-11T05:54:29.513Z,32.70
2023-02-11T06:00:31.032Z,31.38
2023-02-11T06:06:32.587Z,29.63
2023-02-11T06:12:34.056Z,33.00
2023-02-11T06:18:35.519Z,35.05
2023-02-11T06:24:59.905Z,35.57
2023-02-11T06:31:04.439Z,35.65
2023-02-11T06:37:06.114Z,29.77
2023-02-11T06:43:07.690Z,34.70
2023-02-11T06:49:09.116Z,34.15
2023-02-11T06:55:10.634Z,31.17
2023-02-11T07:01:14.677Z,34.55
2023-02-11T07:07:16.241Z,34.38
2023-02-11T07:13:17.922Z,33.23
2023-02-11T07:19:19.405Z,35.83
2023-02-11T07:25:20.962Z,35.70
2023-02-11T07:31:24.130Z,36.95
2023-02-11T07:37:25.696Z,35.45
2023-02-11T07:43:27.576Z,34.13
2023-02-11T07:49:29.197Z,34.55
2023-02-11T07:55:30.650Z,34.77
2023-02-11T08:01:32.110Z,33.80
2023-02-11T08:07:33.621Z,36.80
2023-02-11T08:13:35.372Z,30.43
2023-02-11T08:19:37.067Z,36.90
2023-02-11T08:25:38.595Z,33.50
2023-02-11T08:31:41.717Z,33.58
2023-02-11T08:37:43.257Z,39.28
2023-02-11T08:43:45.499Z,32.37
2023-02-11T08:49:46.977Z,34.40
2023-02-11T08:55:49.463Z,36.63
2023-02-11T09:01:51.403Z,32.70
2023-02-11T09:07:52.970Z,31.15
2023-02-11T09:13:55.433Z,30.93
2023-02-11T09:19:56.905Z,37.20
2023-02-11T09:25:58.432Z,33.77
2023-02-11T09:32:00.022Z,36.42
2023-02-11T09:38:01.675Z,37.75
2023-02-11T09:44:06.097Z,31.93
2023-02-11T09:50:12.272Z,32.75
2023-02-11T09:56:15.121Z,31.77
2023-02-11T10:02:27.250Z,32.35
2023-02-11T10:08:28.700Z,36.35
2023-02-11T10:14:36.371Z,36.43
2023-02-11T10:20:38.835Z,32.00
2023-02-11T10:26:40.800Z,31.90
2023-02-11T10:32:48.459Z,29.38
2023-02-11T10:38:50.012Z,33.08
2023-02-11T10:44:59.630Z,35.23
2023-02-11T10:51:07.329Z,27.95
2023-02-11T10:57:14.806Z,30.63
2023-02-11T11:03:23.744Z,28.75
2023-02-11T11:09:30.565Z,27.88
2023-02-11T11:15:32.399Z,30.30
2023-02-11T11:21:36.383Z,31.58
2023-02-11T11:27:38.027Z,27.63
2023-02-11T11:33:41.531Z,29.90
2023-02-11T11:39:48.495Z,28.30
2023-02-11T11:45:54.694Z,30.33
2023-02-11T11:51:59.248Z,31.23
2023-02-11T11:58:00.817Z,29.63
2023-02-11T12:04:05.431Z,28.77
2023-02-11T12:10:22.833Z,29.25
2023-02-11T12:16:33.190Z,29.80
2023-02-11T12:22:41.162Z,29.50
2023-02-11T12:28:42.825Z,29.07
2023-02-11T12:34:52.717Z,28.48
2023-02-11T12:40:54.199Z,25.70
2023-02-11T12:47:06.391Z,30.83
2023-02-11T12:53:21.389Z,29.30
2023-02-11T12:59:41.147Z,28.60
2023-02-11T13:05:42.627Z,27.15
2023-02-11T13:11:51.765Z,28.30
2023-02-11T13:17:57.914Z,28.87
2023-02-11T13:24:17.361Z,28.45
2023-02-11T13:30:27.926Z,31.13
2023-02-11T13:36:32.776Z,29.77
2023-02-11T13:42:45.277Z,29.17
2023-02-11T13:48:52.485Z,26.47
2023-02-11T13:54:55.412Z,27.92
2023-02-11T14:00:58.355Z,30.20
2023-02-11T14:07:43.782Z,29.92
2023-02-11T14:13:48.348Z,26.38
2023-02-11T14:19:50.231Z,26.27
2023-02-11T14:25:57.975Z,28.95
2023-02-11T14:32:10.291Z,30.90
2023-02-11T14:38:18.225Z,28.10
2023-02-11T14:44:21.661Z,34.03
2023-02-11T14:50:27.978Z,27.90
2023-02-11T14:56:34.284Z,28.27
2023-02-11T15:02:36.952Z,28.70
2023-02-11T15:08:43.163Z,24.83
2023-02-11T15:14:49.203Z,25.08
2023-02-11T15:20:51.963Z,25.20
2023-02-11T15:26:56.742Z,27.55
2023-02-11T15:33:00.020Z,22.57
2023-02-11T15:39:30.726Z,26.52
2023-02-11T15:45:34.438Z,26.08
2023-02-11T15:51:37.434Z,24.73
2023-02-11T15:57:41.708Z,21.73
2023-02-11T16:03:43.866Z,24.20
2023-02-11T16:09:45.312Z,20.77
2023-02-11T16:15:49.452Z,22.73
2023-02-11T16:21:51.261Z,24.40
2023-02-11T16:27:53.247Z,22.52
2023-02-11T16:33:54.688Z,21.37
2023-02-11T16:39:56.714Z,21.92
2023-02-11T16:45:58.414Z,23.85
2023-02-11T16:52:01.447Z,21.23
2023-02-11T16:58:02.973Z,18.10
2023-02-11T17:04:05.444Z,19.57
2023-02-11T17:10:13.833Z,18.92
2023-02-11T17:16:20.441Z,20.45
2023-02-11T17:22:22.045Z,21.37
2023-02-11T17:28:23.570Z,21.20
2023-02-11T17:34:25.176Z,22.33
2023-02-11T17:40:27.701Z,23.50
2023-02-11T17:46:29.242Z,24.30
2023-02-11T17:52:30.726Z,23.97
2023-02-11T17:58:32.282Z,22.08
2023-02-11T18:04:33.872Z,22.30
2023-02-11T18:10:35.485Z,26.92
2023-02-11T18:16:39.031Z,27.00
2023-02-11T18:22:41.275Z,28.57
2023-02-11T18:28:45.689Z,27.05
2023-02-11T18:34:47.500Z,29.57
2023-02-11T18:40:50.477Z,31.23
2023-02-11T18:46:52.682Z,29.92
2023-02-11T18:52:54.114Z,32.40
2023-02-11T18:58:57.296Z,39.08
2023-02-11T19:04:58.868Z,29.60
2023-02-11T19:11:00.350Z,34.67
2023-02-11T19:17:03.832Z,33.03
2023-02-11T19:23:05.384Z,32.17
2023-02-11T19:29:06.901Z,34.85
2023-02-11T19:35:08.389Z,29.80
2023-02-11T19:41:10.419Z,36.10
2023-02-11T19:47:13.387Z,35.00
2023-02-11T19:53:14.846Z,37.30
2023-02-11T19:59:16.476Z,36.38
2023-02-11T20:05:18.053Z,39.67
2023-02-11T20:11:20.898Z,37.58
2023-02-11T20:17:22.500Z,37.05
2023-02-11T20:23:24.112Z,39.43
2023-02-11T20:29:25.979Z,40.97
2023-02-11T20:35:27.588Z,37.47
2023-02-11T20:41:34.272Z,38.30
2023-02-11T20:47:37.122Z,36.67
2023-02-11T20:53:39.891Z,37.27
2023-02-11T20:59:41.837Z,35.78
2023-02-11T21:05:43.409Z,41.80
2023-02-11T21:11:45.134Z,38.50
2023-02-11T21:17:46.738Z,40.72
2023-02-11T21:23:48.335Z,39.43
2023-02-11T21:29:54.461Z,36.08
2023-02-11T21:35:57.464Z,37.23
2023-02-11T21:41:59.377Z,38.50
2023-02-11T21:48:00.950Z,35.15
2023-02-11T21:54:03.051Z,39.43
2023-02-11T22:00:06.738Z,40.58
2023-02-11T22:06:09.467Z,42.27
2023-02-11T22:12:10.961Z,36.90
2023-02-11T22:18:12.475Z,39.85
2023-02-11T22:24:13.941Z,42.13
2023-02-11T22:30:15.447Z,36.38
2023-02-11T22:36:18.839Z,38.47
2023-02-11T22:42:20.308Z,44.97
2023-02-11T22:48:23.181Z,37.67
2023-02-11T22:54:25.048Z,38.63
2023-02-11T23:00:30.345Z,36.60
2023-02-11T23:06:31.924Z,43.47
2023-02-11T23:12:33.459Z,36.95
2023-02-11T23:18:35.736Z,39.25
2023-02-11T23:24:37.275Z,35.33
2023-02-11T23:30:39.305Z,37.63
2023-02-11T23:36:40.797Z,36.77
2023-02-11T23:42:42.264Z,39.05
2023-02-11T23:48:43.745Z,35.70
2023-02-11T23:54:48.061Z,37.53
